sensor_id;sensor_type;location;lat;lon;timestamp;P1;durP1;ratioP1;P2;durP2;ratioP2
48215;SDS011;34005;48.844;10.098;2024-01-11T00:00:50;50.58;;;27.70;;
48215;SDS011;34005;48.844;10.098;2024-01-11T00:03:18;49.00;;;27.73;;
48215;SDS011;34005;48.844;10.098;2024-01-11T00:05:46;50.30;;;27.60;;
48215;SDS011;34005;48.844;10.098;2024-01-11T00:08:14;49.35;;;26.17;;
48215;SDS011;34005;48.844;10.098;2024-01-11T00:10:42;50.25;;;27.58;;
48215;SDS011;34005;48.844;10.098;2024-01-11T00:13:09;48.08;;;26.48;;
48215;SDS011;34005;48.844;10.098;2024-01-11T00:15:38;49.60;;;26.75;;
48215;SDS011;34005;48.844;10.098;2024-01-11T00:18:06;42.90;;;25.77;;
48215;SDS011;34005;48.844;10.098;2024-01-11T00:20:33;47.78;;;26.52;;
48215;SDS011;34005;48.844;10.098;2024-01-11T00:23:01;50.33;;;28.23;;
48215;SDS011;34005;48.844;10.098;2024-01-11T00:25:29;53.47;;;28.50;;
48215;SDS011;34005;48.844;10.098;2024-01-11T00:27:57;52.47;;;26.58;;
48215;SDS011;34005;48.844;10.098;2024-01-11T00:30:24;49.08;;;26.60;;
48215;SDS011;34005;48.844;10.098;2024-01-11T00:32:53;48.92;;;28.50;;
48215;SDS011;34005;48.844;10.098;2024-01-11T00:35:21;49.38;;;27.17;;
48215;SDS011;34005;48.844;10.098;2024-01-11T00:37:49;53.13;;;28.00;;
48215;SDS011;34005;48.844;10.098;2024-01-11T00:40:16;52.97;;;27.42;;
48215;SDS011;34005;48.844;10.098;2024-01-11T00:42:44;51.78;;;28.98;;
48215;SDS011;34005;48.844;10.098;2024-01-11T00:45:11;49.45;;;28.50;;
48215;SDS011;34005;48.844;10.098;2024-01-11T00:47:39;55.03;;;29.38;;
48215;SDS011;34005;48.844;10.098;2024-01-11T00:50:08;52.42;;;27.73;;
48215;SDS011;34005;48.844;10.098;2024-01-11T00:52:36;54.45;;;30.17;;
48215;SDS011;34005;48.844;10.098;2024-01-11T00:55:05;54.85;;;28.77;;
48215;SDS011;34005;48.844;10.098;2024-01-11T00:57:33;50.83;;;27.95;;
48215;SDS011;34005;48.844;10.098;2024-01-11T01:00:00;53.08;;;28.20;;
48215;SDS011;34005;48.844;10.098;2024-01-11T01:02:28;56.75;;;29.10;;
48215;SDS011;34005;48.844;10.098;2024-01-11T01:04:55;47.75;;;27.98;;
48215;SDS011;34005;48.844;10.098;2024-01-11T01:07:24;53.30;;;30.67;;
48215;SDS011;34005;48.844;10.098;2024-01-11T01:09:52;53.45;;;30.27;;
48215;SDS011;34005;48.844;10.098;2024-01-11T01:12:19;52.40;;;29.63;;
48215;SDS011;34005;48.844;10.098;2024-01-11T01:14:47;55.42;;;28.73;;
48215;SDS011;34005;48.844;10.098;2024-01-11T01:17:14;53.95;;;28.25;;
48215;SDS011;34005;48.844;10.098;2024-01-11T01:19:43;57.10;;;27.98;;
48215;SDS011;34005;48.844;10.098;2024-01-11T01:22:10;51.90;;;28.35;;
48215;SDS011;34005;48.844;10.098;2024-01-11T01:24:39;49.72;;;28.40;;
48215;SDS011;34005;48.844;10.098;2024-01-11T01:27:07;50.17;;;28.80;;
48215;SDS011;34005;48.844;10.098;2024-01-11T01:29:34;51.55;;;28.88;;
48215;SDS011;34005;48.844;10.098;2024-01-11T01:32:02;51.08;;;28.02;;
48215;SDS011;34005;48.844;10.098;2024-01-11T01:34:31;47.70;;;27.40;;
48215;SDS011;34005;48.844;10.098;2024-01-11T01:36:58;50.03;;;28.17;;
48215;SDS011;34005;48.844;10.098;2024-01-11T01:39:26;53.00;;;28.13;;
48215;SDS011;34005;48.844;10.098;2024-01-11T01:41:55;53.40;;;27.42;;
48215;SDS011;34005;48.844;10.098;2024-01-11T01:44:22;45.60;;;26.40;;
48215;SDS011;34005;48.844;10.098;2024-01-11T01:46:51;51.30;;;27.98;;
48215;SDS011;34005;48.844;10.098;2024-01-11T01:49:19;51.17;;;26.30;;
48215;SDS011;34005;48.844;10.098;2024-01-11T01:51:49;53.40;;;28.58;;
48215;SDS011;34005;48.844;10.098;2024-01-11T01:54:17;53.00;;;26.80;;
48215;SDS011;34005;48.844;10.098;2024-01-11T01:56:45;53.50;;;29.05;;
48215;SDS011;34005;48.844;10.098;2024-01-11T01:59:14;49.55;;;27.15;;
48215;SDS011;34005;48.844;10.098;2024-01-11T02:01:43;52.08;;;27.23;;
48215;SDS011;34005;48.844;10.098;2024-01-11T02:04:11;50.65;;;27.40;;
48215;SDS011;34005;48.844;10.098;2024-01-11T02:06:38;47.40;;;26.95;;
48215;SDS011;34005;48.844;10.098;2024-01-11T02:09:07;49.92;;;27.73;;
48215;SDS011;34005;48.844;10.098;2024-01-11T02:11:37;53.97;;;27.67;;
48215;SDS011;34005;48.844;10.098;2024-01-11T02:14:05;47.63;;;26.80;;
48215;SDS011;34005;48.844;10.098;2024-01-11T02:16:35;48.83;;;27.88;;
48215;SDS011;34005;48.844;10.098;2024-01-11T02:19:03;48.85;;;27.23;;
48215;SDS011;34005;48.844;10.098;2024-01-11T02:21:33;48.22;;;26.95;;
48215;SDS011;34005;48.844;10.098;2024-01-11T02:24:04;49.15;;;26.60;;
48215;SDS011;34005;48.844;10.098;2024-01-11T02:26:33;49.35;;;26.27;;
48215;SDS011;34005;48.844;10.098;2024-01-11T02:29:01;52.20;;;28.10;;
48215;SDS011;34005;48.844;10.098;2024-01-11T02:31:29;52.97;;;27.40;;
48215;SDS011;34005;48.844;10.098;2024-01-11T02:33:57;53.13;;;27.73;;
48215;SDS011;34005;48.844;10.098;2024-01-11T02:36:26;53.75;;;27.67;;
48215;SDS011;34005;48.844;10.098;2024-01-11T02:38:54;47.65;;;28.10;;
48215;SDS011;34005;48.844;10.098;2024-01-11T02:41:23;52.40;;;28.70;;
48215;SDS011;34005;48.844;10.098;2024-01-11T02:43:52;49.42;;;27.15;;
48215;SDS011;34005;48.844;10.098;2024-01-11T02:46:21;50.65;;;27.05;;
48215;SDS011;34005;48.844;10.098;2024-01-11T02:48:49;51.42;;;27.08;;
48215;SDS011;34005;48.844;10.098;2024-01-11T02:51:18;53.97;;;27.40;;
48215;SDS011;34005;48.844;10.098;2024-01-11T02:53:46;49.75;;;28.35;;
48215;SDS011;34005;48.844;10.098;2024-01-11T02:56:14;46.58;;;25.75;;
48215;SDS011;34005;48.844;10.098;2024-01-11T02:58:43;49.72;;;26.08;;
48215;SDS011;34005;48.844;10.098;2024-01-11T03:01:10;51.05;;;26.65;;
48215;SDS011;34005;48.844;10.098;2024-01-11T03:03:38;44.60;;;26.85;;
48215;SDS011;34005;48.844;10.098;2024-01-11T03:06:06;44.40;;;25.58;;
48215;SDS011;34005;48.844;10.098;2024-01-11T03:08:34;42.55;;;23.70;;
48215;SDS011;34005;48.844;10.098;2024-01-11T03:11:01;48.67;;;25.45;;
48215;SDS011;34005;48.844;10.098;2024-01-11T03:13:29;46.95;;;24.30;;
48215;SDS011;34005;48.844;10.098;2024-01-11T03:15:59;46.78;;;26.85;;
48215;SDS011;34005;48.844;10.098;2024-01-11T03:18:27;46.88;;;25.15;;
48215;SDS011;34005;48.844;10.098;2024-01-11T03:20:56;45.45;;;26.00;;
48215;SDS011;34005;48.844;10.098;2024-01-11T03:23:24;47.88;;;25.08;;
48215;SDS011;34005;48.844;10.098;2024-01-11T03:25:51;46.53;;;26.58;;
48215;SDS011;34005;48.844;10.098;2024-01-11T03:28:19;48.53;;;26.88;;
48215;SDS011;34005;48.844;10.098;2024-01-11T03:30:47;43.28;;;25.92;;
48215;SDS011;34005;48.844;10.098;2024-01-11T03:33:16;43.65;;;24.13;;
48215;SDS011;34005;48.844;10.098;2024-01-11T03:35:44;48.22;;;26.73;;
48215;SDS011;34005;48.844;10.098;2024-01-11T03:38:12;47.63;;;27.08;;
48215;SDS011;34005;48.844;10.098;2024-01-11T03:40:40;51.50;;;27.88;;
48215;SDS011;34005;48.844;10.098;2024-01-11T03:43:07;53.83;;;30.50;;
48215;SDS011;34005;48.844;10.098;2024-01-11T03:45:35;50.97;;;28.65;;
48215;SDS011;34005;48.844;10.098;2024-01-11T03:48:03;49.58;;;28.00;;
48215;SDS011;34005;48.844;10.098;2024-01-11T03:50:33;52.03;;;28.95;;
48215;SDS011;34005;48.844;10.098;2024-01-11T03:53:01;57.47;;;29.55;;
48215;SDS011;34005;48.844;10.098;2024-01-11T03:55:29;50.63;;;27.38;;
48215;SDS011;34005;48.844;10.098;2024-01-11T03:57:57;49.70;;;27.08;;
48215;SDS011;34005;48.844;10.098;2024-01-11T04:00:24;47.72;;;26.52;;
48215;SDS011;34005;48.844;10.098;2024-01-11T04:02:52;52.20;;;28.88;;
48215;SDS011;34005;48.844;10.098;2024-01-11T04:05:20;53.53;;;28.23;;
48215;SDS011;34005;48.844;10.098;2024-01-11T04:07:49;50.63;;;28.17;;
48215;SDS011;34005;48.844;10.098;2024-01-11T04:10:17;51.78;;;28.67;;
48215;SDS011;34005;48.844;10.098;2024-01-11T04:12:45;52.00;;;29.45;;
48215;SDS011;34005;48.844;10.098;2024-01-11T04:15:12;48.53;;;27.42;;
48215;SDS011;34005;48.844;10.098;2024-01-11T04:17:40;56.95;;;28.88;;
48215;SDS011;34005;48.844;10.098;2024-01-11T04:20:08;53.13;;;27.23;;
48215;SDS011;34005;48.844;10.098;2024-01-11T04:22:36;53.08;;;27.95;;
48215;SDS011;34005;48.844;10.098;2024-01-11T04:25:06;49.00;;;26.60;;
48215;SDS011;34005;48.844;10.098;2024-01-11T04:27:35;47.78;;;27.17;;
48215;SDS011;34005;48.844;10.098;2024-01-11T04:30:02;48.58;;;26.92;;
48215;SDS011;34005;48.844;10.098;2024-01-11T04:32:31;48.70;;;27.42;;
48215;SDS011;34005;48.844;10.098;2024-01-11T04:34:59;51.03;;;26.67;;
48215;SDS011;34005;48.844;10.098;2024-01-11T04:37:26;53.38;;;27.48;;
48215;SDS011;34005;48.844;10.098;2024-01-11T04:39:54;53.15;;;27.88;;
48215;SDS011;34005;48.844;10.098;2024-01-11T04:42:27;47.08;;;27.38;;
48215;SDS011;34005;48.844;10.098;2024-01-11T04:44:55;54.40;;;30.00;;
48215;SDS011;34005;48.844;10.098;2024-01-11T04:47:23;56.13;;;28.90;;
48215;SDS011;34005;48.844;10.098;2024-01-11T04:49:50;51.42;;;27.65;;
48215;SDS011;34005;48.844;10.098;2024-01-11T04:52:18;50.50;;;27.05;;
48215;SDS011;34005;48.844;10.098;2024-01-11T04:54:46;50.10;;;26.90;;
48215;SDS011;34005;48.844;10.098;2024-01-11T04:57:13;48.03;;;26.38;;
48215;SDS011;34005;48.844;10.098;2024-01-11T04:59:42;49.15;;;27.83;;
48215;SDS011;34005;48.844;10.098;2024-01-11T05:02:10;51.53;;;27.15;;
48215;SDS011;34005;48.844;10.098;2024-01-11T05:04:38;47.63;;;26.35;;
48215;SDS011;34005;48.844;10.098;2024-01-11T05:07:06;48.97;;;26.27;;
48215;SDS011;34005;48.844;10.098;2024-01-11T05:09:33;57.28;;;28.60;;
48215;SDS011;34005;48.844;10.098;2024-01-11T05:12:01;44.20;;;26.95;;
48215;SDS011;34005;48.844;10.098;2024-01-11T05:14:29;50.17;;;27.98;;
48215;SDS011;34005;48.844;10.098;2024-01-11T05:16:58;52.78;;;28.42;;
48215;SDS011;34005;48.844;10.098;2024-01-11T05:19:27;51.08;;;28.02;;
48215;SDS011;34005;48.844;10.098;2024-01-11T05:21:54;52.85;;;28.38;;
48215;SDS011;34005;48.844;10.098;2024-01-11T05:24:23;48.80;;;26.42;;
48215;SDS011;34005;48.844;10.098;2024-01-11T05:26:50;54.63;;;28.17;;
48215;SDS011;34005;48.844;10.098;2024-01-11T05:29:18;49.00;;;27.13;;
48215;SDS011;34005;48.844;10.098;2024-01-11T05:31:46;48.53;;;26.10;;
48215;SDS011;34005;48.844;10.098;2024-01-11T05:34:15;46.47;;;27.23;;
48215;SDS011;34005;48.844;10.098;2024-01-11T05:36:43;49.42;;;27.23;;
48215;SDS011;34005;48.844;10.098;2024-01-11T05:39:11;47.33;;;26.83;;
48215;SDS011;34005;48.844;10.098;2024-01-11T05:41:39;51.83;;;26.52;;
48215;SDS011;34005;48.844;10.098;2024-01-11T05:44:07;49.42;;;26.52;;
48215;SDS011;34005;48.844;10.098;2024-01-11T05:46:35;47.20;;;27.27;;
48215;SDS011;34005;48.844;10.098;2024-01-11T05:49:02;51.97;;;28.55;;
48215;SDS011;34005;48.844;10.098;2024-01-11T05:51:32;53.33;;;28.27;;
48215;SDS011;34005;48.844;10.098;2024-01-11T05:54:00;53.25;;;29.30;;
48215;SDS011;34005;48.844;10.098;2024-01-11T05:56:27;51.33;;;29.20;;
48215;SDS011;34005;48.844;10.098;2024-01-11T05:58:55;48.85;;;26.77;;
48215;SDS011;34005;48.844;10.098;2024-01-11T06:01:23;51.78;;;27.70;;
48215;SDS011;34005;48.844;10.098;2024-01-11T06:03:50;47.00;;;26.65;;
48215;SDS011;34005;48.844;10.098;2024-01-11T06:06:18;49.90;;;27.48;;
48215;SDS011;34005;48.844;10.098;2024-01-11T06:08:48;49.20;;;27.23;;
48215;SDS011;34005;48.844;10.098;2024-01-11T06:11:15;52.75;;;27.15;;
48215;SDS011;34005;48.844;10.098;2024-01-11T06:13:44;49.45;;;26.88;;
48215;SDS011;34005;48.844;10.098;2024-01-11T06:16:13;48.20;;;26.42;;
48215;SDS011;34005;48.844;10.098;2024-01-11T06:18:41;46.00;;;25.55;;
48215;SDS011;34005;48.844;10.098;2024-01-11T06:21:08;49.22;;;27.42;;
48215;SDS011;34005;48.844;10.098;2024-01-11T06:23:36;52.42;;;27.75;;
48215;SDS011;34005;48.844;10.098;2024-01-11T06:26:05;47.75;;;26.45;;
48215;SDS011;34005;48.844;10.098;2024-01-11T06:28:34;48.90;;;27.40;;
48215;SDS011;34005;48.844;10.098;2024-01-11T06:31:02;49.60;;;27.70;;
48215;SDS011;34005;48.844;10.098;2024-01-11T06:33:30;49.80;;;26.83;;
48215;SDS011;34005;48.844;10.098;2024-01-11T06:35:59;49.03;;;28.65;;
48215;SDS011;34005;48.844;10.098;2024-01-11T06:38:27;49.63;;;26.77;;
48215;SDS011;34005;48.844;10.098;2024-01-11T06:40:54;47.92;;;26.00;;
48215;SDS011;34005;48.844;10.098;2024-01-11T06:43:23;49.97;;;28.33;;
48215;SDS011;34005;48.844;10.098;2024-01-11T06:45:51;48.72;;;25.48;;
48215;SDS011;34005;48.844;10.098;2024-01-11T06:48:19;63.45;;;34.65;;
48215;SDS011;34005;48.844;10.098;2024-01-11T06:50:47;56.47;;;31.88;;
48215;SDS011;34005;48.844;10.098;2024-01-11T06:53:15;52.08;;;29.48;;
48215;SDS011;34005;48.844;10.098;2024-01-11T06:55:44;56.92;;;28.85;;
48215;SDS011;34005;48.844;10.098;2024-01-11T06:58:15;53.63;;;28.98;;
48215;SDS011;34005;48.844;10.098;2024-01-11T07:00:45;56.47;;;28.58;;
48215;SDS011;34005;48.844;10.098;2024-01-11T07:03:13;50.13;;;29.25;;
48215;SDS011;34005;48.844;10.098;2024-01-11T07:05:40;52.92;;;28.55;;
48215;SDS011;34005;48.844;10.098;2024-01-11T07:08:08;52.53;;;28.60;;
48215;SDS011;34005;48.844;10.098;2024-01-11T07:10:38;48.42;;;26.08;;
48215;SDS011;34005;48.844;10.098;2024-01-11T07:13:29;51.05;;;26.55;;
48215;SDS011;34005;48.844;10.098;2024-01-11T07:16:39;51.83;;;27.95;;
48215;SDS011;34005;48.844;10.098;2024-01-11T07:19:26;49.70;;;27.30;;
48215;SDS011;34005;48.844;10.098;2024-01-11T07:25:08;49.38;;;27.58;;
48215;SDS011;34005;48.844;10.098;2024-01-11T07:27:39;49.20;;;26.98;;
48215;SDS011;34005;48.844;10.098;2024-01-11T07:30:10;51.88;;;28.05;;
48215;SDS011;34005;48.844;10.098;2024-01-11T07:32:45;55.35;;;29.50;;
48215;SDS011;34005;48.844;10.098;2024-01-11T07:35:29;54.75;;;29.08;;
48215;SDS011;34005;48.844;10.098;2024-01-11T07:38:07;53.70;;;28.05;;
48215;SDS011;34005;48.844;10.098;2024-01-11T07:40:44;53.00;;;28.67;;
48215;SDS011;34005;48.844;10.098;2024-01-11T07:43:16;61.38;;;30.85;;
48215;SDS011;34005;48.844;10.098;2024-01-11T07:46:14;57.70;;;31.55;;
48215;SDS011;34005;48.844;10.098;2024-01-11T07:48:47;55.03;;;29.70;;
48215;SDS011;34005;48.844;10.098;2024-01-11T07:51:18;54.38;;;30.23;;
48215;SDS011;34005;48.844;10.098;2024-01-11T07:57:17;53.45;;;30.33;;
48215;SDS011;34005;48.844;10.098;2024-01-11T08:00:05;52.70;;;29.30;;
48215;SDS011;34005;48.844;10.098;2024-01-11T08:03:14;55.42;;;30.13;;
48215;SDS011;34005;48.844;10.098;2024-01-11T08:09:05;55.75;;;30.02;;
48215;SDS011;34005;48.844;10.098;2024-01-11T08:11:50;54.47;;;29.27;;
48215;SDS011;34005;48.844;10.098;2024-01-11T08:14:52;58.65;;;29.80;;
48215;SDS011;34005;48.844;10.098;2024-01-11T08:17:55;53.95;;;29.23;;
48215;SDS011;34005;48.844;10.098;2024-01-11T08:20:39;57.28;;;29.70;;
48215;SDS011;34005;48.844;10.098;2024-01-11T08:23:32;55.55;;;30.42;;
48215;SDS011;34005;48.844;10.098;2024-01-11T08:26:16;52.45;;;29.42;;
48215;SDS011;34005;48.844;10.098;2024-01-11T08:29:28;55.92;;;30.30;;
48215;SDS011;34005;48.844;10.098;2024-01-11T08:32:08;54.03;;;29.38;;
48215;SDS011;34005;48.844;10.098;2024-01-11T08:35:03;55.33;;;28.88;;
48215;SDS011;34005;48.844;10.098;2024-01-11T08:38:02;56.28;;;30.05;;
48215;SDS011;34005;48.844;10.098;2024-01-11T08:54:53;55.85;;;28.55;;
48215;SDS011;34005;48.844;10.098;2024-01-11T09:00:48;59.65;;;32.40;;
48215;SDS011;34005;48.844;10.098;2024-01-11T09:03:54;58.35;;;30.17;;
48215;SDS011;34005;48.844;10.098;2024-01-11T09:07:02;54.90;;;29.80;;
48215;SDS011;34005;48.844;10.098;2024-01-11T09:10:14;60.30;;;33.05;;
48215;SDS011;34005;48.844;10.098;2024-01-11T09:13:23;57.40;;;32.63;;
48215;SDS011;34005;48.844;10.098;2024-01-11T09:16:15;61.50;;;32.38;;
48215;SDS011;34005;48.844;10.098;2024-01-11T09:19:08;67.15;;;31.95;;
48215;SDS011;34005;48.844;10.098;2024-01-11T09:21:56;62.88;;;32.50;;
48215;SDS011;34005;48.844;10.098;2024-01-11T09:24:51;64.72;;;33.20;;
48215;SDS011;34005;48.844;10.098;2024-01-11T09:27:52;61.85;;;34.97;;
48215;SDS011;34005;48.844;10.098;2024-01-11T09:30:40;62.90;;;32.80;;
48215;SDS011;34005;48.844;10.098;2024-01-11T09:33:21;64.82;;;34.25;;
48215;SDS011;34005;48.844;10.098;2024-01-11T09:36:22;63.45;;;31.83;;
48215;SDS011;34005;48.844;10.098;2024-01-11T09:39:12;54.83;;;31.25;;
48215;SDS011;34005;48.844;10.098;2024-01-11T09:41:58;57.22;;;31.08;;
48215;SDS011;34005;48.844;10.098;2024-01-11T09:45:07;57.40;;;31.70;;
48215;SDS011;34005;48.844;10.098;2024-01-11T09:47:56;62.65;;;33.13;;
48215;SDS011;34005;48.844;10.098;2024-01-11T09:50:35;57.45;;;32.65;;
48215;SDS011;34005;48.844;10.098;2024-01-11T09:53:21;50.67;;;30.17;;
48215;SDS011;34005;48.844;10.098;2024-01-11T09:56:18;57.03;;;30.05;;
48215;SDS011;34005;48.844;10.098;2024-01-11T09:59:22;55.38;;;30.00;;
48215;SDS011;34005;48.844;10.098;2024-01-11T10:02:23;54.28;;;29.25;;
48215;SDS011;34005;48.844;10.098;2024-01-11T10:05:26;58.08;;;29.30;;
48215;SDS011;34005;48.844;10.098;2024-01-11T10:08:32;54.15;;;29.27;;
48215;SDS011;34005;48.844;10.098;2024-01-11T10:11:31;50.25;;;28.83;;
48215;SDS011;34005;48.844;10.098;2024-01-11T10:17:13;53.95;;;28.65;;
48215;SDS011;34005;48.844;10.098;2024-01-11T10:27:17;51.40;;;29.05;;
48215;SDS011;34005;48.844;10.098;2024-01-11T10:30:12;51.40;;;29.00;;
48215;SDS011;34005;48.844;10.098;2024-01-11T10:33:18;57.30;;;31.00;;
48215;SDS011;34005;48.844;10.098;2024-01-11T10:36:06;53.65;;;30.02;;
48215;SDS011;34005;48.844;10.098;2024-01-11T10:39:12;54.42;;;30.17;;
48215;SDS011;34005;48.844;10.098;2024-01-11T10:46:09;54.40;;;31.25;;
48215;SDS011;34005;48.844;10.098;2024-01-11T10:49:18;56.67;;;32.33;;
48215;SDS011;34005;48.844;10.098;2024-01-11T10:52:28;55.88;;;31.80;;
48215;SDS011;34005;48.844;10.098;2024-01-11T10:55:53;53.70;;;31.88;;
48215;SDS011;34005;48.844;10.098;2024-01-11T10:58:55;46.15;;;28.25;;
48215;SDS011;34005;48.844;10.098;2024-01-11T11:04:54;48.22;;;28.90;;
48215;SDS011;34005;48.844;10.098;2024-01-11T17:09:05;48.38;;;27.05;;
48215;SDS011;34005;48.844;10.098;2024-01-11T17:11:33;45.33;;;29.90;;
48215;SDS011;34005;48.844;10.098;2024-01-11T17:14:05;51.22;;;30.27;;
48215;SDS011;34005;48.844;10.098;2024-01-11T17:16:34;51.45;;;29.52;;
48215;SDS011;34005;48.844;10.098;2024-01-11T17:19:02;51.50;;;29.13;;
48215;SDS011;34005;48.844;10.098;2024-01-11T17:21:30;45.08;;;27.98;;
48215;SDS011;34005;48.844;10.098;2024-01-11T17:24:01;48.45;;;28.40;;
48215;SDS011;34005;48.844;10.098;2024-01-11T17:31:43;54.78;;;29.95;;
48215;SDS011;34005;48.844;10.098;2024-01-11T17:34:18;53.97;;;29.50;;
48215;SDS011;34005;48.844;10.098;2024-01-11T17:36:46;57.95;;;31.30;;
48215;SDS011;34005;48.844;10.098;2024-01-11T17:39:14;50.47;;;28.80;;
48215;SDS011;34005;48.844;10.098;2024-01-11T17:41:41;51.70;;;28.88;;
48215;SDS011;34005;48.844;10.098;2024-01-11T17:44:09;53.33;;;28.08;;
48215;SDS011;34005;48.844;10.098;2024-01-11T17:46:37;53.30;;;31.73;;
48215;SDS011;34005;48.844;10.098;2024-01-11T17:49:06;50.95;;;29.75;;
48215;SDS011;34005;48.844;10.098;2024-01-11T17:51:34;56.67;;;31.35;;
48215;SDS011;34005;48.844;10.098;2024-01-11T17:54:03;57.95;;;32.35;;
48215;SDS011;34005;48.844;10.098;2024-01-11T17:56:31;56.67;;;32.25;;
48215;SDS011;34005;48.844;10.098;2024-01-11T17:58:59;60.25;;;33.95;;
48215;SDS011;34005;48.844;10.098;2024-01-11T18:01:26;58.90;;;33.97;;
48215;SDS011;34005;48.844;10.098;2024-01-11T18:03:55;60.30;;;36.17;;
48215;SDS011;34005;48.844;10.098;2024-01-11T18:06:24;59.58;;;33.58;;
48215;SDS011;34005;48.844;10.098;2024-01-11T18:08:52;55.08;;;30.00;;
48215;SDS011;34005;48.844;10.098;2024-01-11T18:11:20;53.38;;;31.35;;
48215;SDS011;34005;48.844;10.098;2024-01-11T18:13:49;54.90;;;31.90;;
48215;SDS011;34005;48.844;10.098;2024-01-11T18:16:17;56.58;;;30.85;;
48215;SDS011;34005;48.844;10.098;2024-01-11T18:18:46;48.90;;;29.85;;
48215;SDS011;34005;48.844;10.098;2024-01-11T18:21:14;50.40;;;30.05;;
48215;SDS011;34005;48.844;10.098;2024-01-11T18:23:44;56.75;;;32.60;;
48215;SDS011;34005;48.844;10.098;2024-01-11T18:26:12;68.07;;;36.45;;
48215;SDS011;34005;48.844;10.098;2024-01-11T18:28:40;64.47;;;33.72;;
48215;SDS011;34005;48.844;10.098;2024-01-11T18:31:08;60.08;;;32.33;;
48215;SDS011;34005;48.844;10.098;2024-01-11T18:33:40;49.45;;;27.23;;
48215;SDS011;34005;48.844;10.098;2024-01-11T18:36:09;49.03;;;29.10;;
48215;SDS011;34005;48.844;10.098;2024-01-11T18:38:37;53.90;;;28.63;;
48215;SDS011;34005;48.844;10.098;2024-01-11T18:41:06;56.25;;;30.95;;
48215;SDS011;34005;48.844;10.098;2024-01-11T18:43:34;50.60;;;28.85;;
48215;SDS011;34005;48.844;10.098;2024-01-11T18:46:02;52.15;;;29.60;;
48215;SDS011;34005;48.844;10.098;2024-01-11T18:48:30;52.00;;;30.98;;
48215;SDS011;34005;48.844;10.098;2024-01-11T18:51:00;61.85;;;32.75;;
48215;SDS011;34005;48.844;10.098;2024-01-11T18:53:33;55.45;;;30.23;;
48215;SDS011;34005;48.844;10.098;2024-01-11T18:56:15;52.95;;;30.02;;
48215;SDS011;34005;48.844;10.098;2024-01-11T18:58:48;56.58;;;31.98;;
48215;SDS011;34005;48.844;10.098;2024-01-11T19:01:16;54.72;;;31.38;;
48215;SDS011;34005;48.844;10.098;2024-01-11T19:03:44;51.65;;;30.38;;
48215;SDS011;34005;48.844;10.098;2024-01-11T19:06:12;53.05;;;31.23;;
48215;SDS011;34005;48.844;10.098;2024-01-11T19:08:43;50.33;;;30.90;;
48215;SDS011;34005;48.844;10.098;2024-01-11T19:11:23;52.22;;;29.88;;
48215;SDS011;34005;48.844;10.098;2024-01-11T19:14:02;54.08;;;30.73;;
48215;SDS011;34005;48.844;10.098;2024-01-11T19:16:36;65.30;;;36.67;;
48215;SDS011;34005;48.844;10.098;2024-01-11T19:19:04;71.90;;;39.90;;
48215;SDS011;34005;48.844;10.098;2024-01-11T19:21:36;61.15;;;33.35;;
48215;SDS011;34005;48.844;10.098;2024-01-11T19:24:04;56.22;;;30.95;;
48215;SDS011;34005;48.844;10.098;2024-01-11T19:26:35;52.80;;;29.23;;
48215;SDS011;34005;48.844;10.098;2024-01-11T19:29:07;53.75;;;31.73;;
48215;SDS011;34005;48.844;10.098;2024-01-11T19:31:38;55.67;;;29.75;;
48215;SDS011;34005;48.844;10.098;2024-01-11T19:34:11;54.42;;;30.85;;
48215;SDS011;34005;48.844;10.098;2024-01-11T19:36:45;51.65;;;30.50;;
48215;SDS011;34005;48.844;10.098;2024-01-11T19:39:13;52.13;;;29.95;;
48215;SDS011;34005;48.844;10.098;2024-01-11T19:41:42;51.28;;;29.75;;
48215;SDS011;34005;48.844;10.098;2024-01-11T19:44:09;52.58;;;30.48;;
48215;SDS011;34005;48.844;10.098;2024-01-11T19:46:37;49.67;;;30.65;;
48215;SDS011;34005;48.844;10.098;2024-01-11T19:49:07;67.75;;;35.58;;
48215;SDS011;34005;48.844;10.098;2024-01-11T19:51:35;65.63;;;37.08;;
48215;SDS011;34005;48.844;10.098;2024-01-11T19:54:03;67.35;;;36.17;;
48215;SDS011;34005;48.844;10.098;2024-01-11T19:56:31;59.45;;;34.90;;
48215;SDS011;34005;48.844;10.098;2024-01-11T19:59:00;63.03;;;35.00;;
48215;SDS011;34005;48.844;10.098;2024-01-11T20:01:29;60.00;;;33.22;;
48215;SDS011;34005;48.844;10.098;2024-01-11T20:03:56;63.60;;;33.83;;
48215;SDS011;34005;48.844;10.098;2024-01-11T20:06:25;56.97;;;33.22;;
48215;SDS011;34005;48.844;10.098;2024-01-11T20:08:53;60.35;;;32.15;;
48215;SDS011;34005;48.844;10.098;2024-01-11T20:11:22;54.33;;;29.90;;
48215;SDS011;34005;48.844;10.098;2024-01-11T20:13:49;52.72;;;29.80;;
48215;SDS011;34005;48.844;10.098;2024-01-11T20:16:18;54.80;;;30.65;;
48215;SDS011;34005;48.844;10.098;2024-01-11T20:18:46;54.45;;;28.92;;
48215;SDS011;34005;48.844;10.098;2024-01-11T20:21:14;49.13;;;28.92;;
48215;SDS011;34005;48.844;10.098;2024-01-11T20:23:41;50.90;;;30.10;;
48215;SDS011;34005;48.844;10.098;2024-01-11T20:26:10;53.92;;;29.02;;
48215;SDS011;34005;48.844;10.098;2024-01-11T20:28:39;57.00;;;30.10;;
48215;SDS011;34005;48.844;10.098;2024-01-11T20:31:06;54.70;;;31.45;;
48215;SDS011;34005;48.844;10.098;2024-01-11T20:33:37;51.47;;;30.60;;
48215;SDS011;34005;48.844;10.098;2024-01-11T20:36:05;56.75;;;33.72;;
48215;SDS011;34005;48.844;10.098;2024-01-11T20:38:34;60.17;;;34.55;;
48215;SDS011;34005;48.844;10.098;2024-01-11T20:41:02;59.53;;;35.47;;
48215;SDS011;34005;48.844;10.098;2024-01-11T20:43:30;65.60;;;35.17;;
48215;SDS011;34005;48.844;10.098;2024-01-11T20:45:58;64.13;;;35.60;;
48215;SDS011;34005;48.844;10.098;2024-01-11T20:48:25;64.10;;;35.55;;
48215;SDS011;34005;48.844;10.098;2024-01-11T20:50:55;84.65;;;42.33;;
48215;SDS011;34005;48.844;10.098;2024-01-11T20:53:22;74.25;;;40.13;;
48215;SDS011;34005;48.844;10.098;2024-01-11T20:55:50;72.30;;;37.67;;
48215;SDS011;34005;48.844;10.098;2024-01-11T20:58:17;62.72;;;34.45;;
48215;SDS011;34005;48.844;10.098;2024-01-11T21:00:45;70.72;;;37.38;;
48215;SDS011;34005;48.844;10.098;2024-01-11T21:03:13;64.55;;;36.30;;
48215;SDS011;34005;48.844;10.098;2024-01-11T21:05:40;60.45;;;34.45;;
48215;SDS011;34005;48.844;10.098;2024-01-11T21:08:09;62.83;;;35.05;;
48215;SDS011;34005;48.844;10.098;2024-01-11T21:10:37;61.15;;;34.22;;
48215;SDS011;34005;48.844;10.098;2024-01-11T21:13:04;59.17;;;32.92;;
48215;SDS011;34005;48.844;10.098;2024-01-11T21:15:32;62.00;;;32.70;;
48215;SDS011;34005;48.844;10.098;2024-01-11T21:17:59;58.45;;;33.78;;
48215;SDS011;34005;48.844;10.098;2024-01-11T21:20:27;56.08;;;31.52;;
48215;SDS011;34005;48.844;10.098;2024-01-11T21:22:55;64.75;;;35.47;;
48215;SDS011;34005;48.844;10.098;2024-01-11T21:25:24;58.15;;;34.17;;
48215;SDS011;34005;48.844;10.098;2024-01-11T21:27:52;62.15;;;34.25;;
48215;SDS011;34005;48.844;10.098;2024-01-11T21:30:19;70.70;;;38.45;;
48215;SDS011;34005;48.844;10.098;2024-01-11T21:32:47;70.40;;;38.42;;